createdAt,value
2018-09-21T00:01:40.449Z,13.74
2018-09-21T00:04:11.409Z,13.60
2018-09-21T00:06:40.203Z,13.50
2018-09-21T00:09:10.543Z,13.36
2018-09-21T00:11:39.220Z,13.37
2018-09-21T00:14:11.332Z,13.38
2018-09-21T00:16:40.038Z,13.35
2018-09-21T00:19:08.717Z,13.31
2018-09-21T00:21:37.396Z,13.21
2018-09-21T00:24:06.089Z,13.07
2018-09-21T00:26:34.865Z,12.98
2018-09-21T00:29:03.617Z,12.94
2018-09-21T00:31:32.406Z,12.85
2018-09-21T00:34:01.181Z,12.84
2018-09-21T00:36:29.897Z,12.81
2018-09-21T00:38:58.542Z,12.83
2018-09-21T00:41:27.387Z,12.85
2018-09-21T00:43:56.889Z,12.90
2018-09-21T00:46:25.740Z,12.91
2018-09-21T00:48:54.416Z,12.92
2018-09-21T00:51:23.084Z,12.91
2018-09-21T00:53:52.934Z,12.90
2018-09-21T00:56:21.619Z,12.85
2018-09-21T00:58:50.337Z,12.82
2018-09-21T01:01:19.200Z,12.84
2018-09-21T01:03:48.748Z,12.76
2018-09-21T01:06:17.780Z,12.70
2018-09-21T01:08:46.533Z,12.69
2018-09-21T01:11:15.557Z,12.62
2018-09-21T01:13:44.265Z,12.64
2018-09-21T01:16:12.944Z,12.60
2018-09-21T01:18:41.638Z,12.59
2018-09-21T01:21:10.323Z,12.54
2018-09-21T01:23:39.013Z,12.53
2018-09-21T01:26:07.741Z,12.46
2018-09-21T01:28:36.439Z,12.40
2018-09-21T01:31:05.278Z,12.38
2018-09-21T01:33:34.068Z,12.31
2018-09-21T01:36:02.824Z,12.23
2018-09-21T01:38:31.612Z,12.18
2018-09-21T01:41:14.947Z,12.17
2018-09-21T01:43:43.867Z,12.17
2018-09-21T01:46:13.629Z,12.16
2018-09-21T01:48:42.323Z,12.07
2018-09-21T01:51:11.052Z,11.83
2018-09-21T01:53:39.943Z,11.64
2018-09-21T01:56:08.990Z,11.54
2018-09-21T01:58:37.775Z,11.50
2018-09-21T02:01:07.048Z,11.43
2018-09-21T02:03:35.720Z,11.39
2018-09-21T02:06:04.711Z,11.41
2018-09-21T02:08:34.033Z,11.31
2018-09-21T02:11:02.867Z,11.27
2018-09-21T02:13:31.888Z,11.26
2018-09-21T02:20:49.949Z,11.12
2018-09-21T02:23:19.353Z,11.09
2018-09-21T02:25:48.520Z,11.08
2018-09-21T02:28:17.204Z,11.05
2018-09-21T02:30:45.902Z,11.03
2018-09-21T02:33:14.636Z,10.99
2018-09-21T02:35:43.537Z,11.00
2018-09-21T02:38:12.330Z,11.03
2018-09-21T02:40:41.009Z,11.05
2018-09-21T02:43:09.693Z,11.03
2018-09-21T02:45:38.363Z,11.00
2018-09-21T02:48:07.247Z,10.94
2018-09-21T02:50:37.055Z,10.92
2018-09-21T02:53:05.712Z,10.86
2018-09-21T02:55:34.391Z,10.85
2018-09-21T02:58:03.076Z,10.85
2018-09-21T03:00:31.830Z,10.84
2018-09-21T03:03:00.423Z,10.85
2018-09-21T03:05:30.292Z,10.85
2018-09-21T03:07:58.933Z,10.88
2018-09-21T03:10:27.631Z,10.93
2018-09-21T03:12:56.304Z,10.99
2018-09-21T03:15:28.092Z,11.02
2018-09-21T03:17:56.748Z,11.07
2018-09-21T03:20:25.424Z,11.12
2018-09-21T03:22:54.088Z,11.16
2018-09-21T03:25:22.760Z,11.20
2018-09-21T03:27:51.439Z,11.23
2018-09-21T03:30:20.070Z,11.24
2018-09-21T03:32:48.784Z,11.24
2018-09-21T03:35:17.468Z,11.25
2018-09-21T03:37:46.130Z,11.26
2018-09-21T03:40:14.858Z,11.27
2018-09-21T03:42:43.509Z,11.29
2018-09-21T03:45:12.161Z,11.32
2018-09-21T03:47:40.821Z,11.34
2018-09-21T03:50:09.495Z,11.39
2018-09-21T03:52:38.120Z,11.43
2018-09-21T03:55:07.188Z,11.45
2018-09-21T03:57:35.837Z,11.43
2018-09-21T04:00:04.646Z,11.35
2018-09-21T04:02:33.301Z,11.21
2018-09-21T04:05:01.997Z,11.11
2018-09-21T04:07:30.675Z,11.01
2018-09-21T04:09:59.364Z,10.97
2018-09-21T04:12:28.020Z,10.95
2018-09-21T04:14:56.681Z,10.96
2018-09-21T04:17:25.370Z,11.02
2018-09-21T04:19:54.017Z,11.07
2018-09-21T04:22:22.692Z,11.11
2018-09-21T04:24:51.371Z,11.14
2018-09-21T04:27:20.028Z,11.17
2018-09-21T04:29:48.744Z,11.22
2018-09-21T04:32:17.405Z,11.28
2018-09-21T04:34:46.068Z,11.33
2018-09-21T04:37:14.724Z,11.32
2018-09-21T04:39:43.440Z,11.31
2018-09-21T04:42:12.082Z,11.30
2018-09-21T04:44:40.767Z,11.31
2018-09-21T04:47:09.452Z,11.31
2018-09-21T04:49:38.277Z,11.35
2018-09-21T04:52:07.335Z,11.36
2018-09-21T04:54:36.148Z,11.38
2018-09-21T04:57:05.040Z,11.40
2018-09-21T04:59:33.702Z,11.41
2018-09-21T05:02:02.979Z,11.41
2018-09-21T05:04:31.640Z,11.43
2018-09-21T05:07:00.302Z,11.44
2018-09-21T05:09:28.960Z,11.44
2018-09-21T05:11:57.631Z,11.46
2018-09-21T05:14:26.435Z,11.48
2018-09-21T05:16:55.707Z,11.50
2018-09-21T05:19:24.355Z,11.55
2018-09-21T05:21:53.147Z,11.56
2018-09-21T05:24:21.839Z,11.57
2018-09-21T05:26:50.459Z,11.57
2018-09-21T05:29:19.126Z,11.60
2018-09-21T05:31:47.778Z,11.58
2018-09-21T05:34:17.573Z,11.58
2018-09-21T05:36:46.228Z,11.56
2018-09-21T05:39:15.549Z,11.59
2018-09-21T05:41:44.265Z,11.61
2018-09-21T05:44:13.126Z,11.64
2018-09-21T05:46:42.540Z,11.66
2018-09-21T05:49:11.214Z,11.70
2018-09-21T05:51:39.896Z,11.72
2018-09-21T05:54:08.607Z,11.77
2018-09-21T05:56:37.345Z,11.80
2018-09-21T05:59:06.064Z,11.64
2018-09-21T06:01:34.772Z,11.35
2018-09-21T06:04:07.171Z,11.10
2018-09-21T06:06:35.893Z,10.90
2018-09-21T06:09:06.576Z,10.78
2018-09-21T06:11:35.239Z,10.75
2018-09-21T06:14:04.020Z,10.77
2018-09-21T06:16:32.670Z,10.80
2018-09-21T06:19:01.381Z,10.85
2018-09-21T06:21:30.060Z,10.89
2018-09-21T06:23:58.987Z,10.93
2018-09-21T06:26:27.723Z,11.03
2018-09-21T06:28:56.532Z,11.06
2018-09-21T06:31:25.272Z,11.10
2018-09-21T06:33:53.908Z,11.15
2018-09-21T06:36:22.932Z,11.18
2018-09-21T06:38:52.824Z,11.10
2018-09-21T06:41:21.482Z,11.07
2018-09-21T06:43:50.161Z,11.01
2018-09-21T06:46:19.012Z,10.99
2018-09-21T06:48:47.924Z,11.00
2018-09-21T06:51:16.657Z,11.03
2018-09-21T06:53:45.387Z,11.09
2018-09-21T06:56:14.186Z,11.19
2018-09-21T06:58:43.116Z,11.27
2018-09-21T07:01:11.947Z,11.35
2018-09-21T07:03:40.742Z,11.44
2018-09-21T07:06:09.563Z,11.50
2018-09-21T07:08:38.234Z,11.54
2018-09-21T07:11:07.113Z,11.61
2018-09-21T07:13:36.000Z,11.66
2018-09-21T07:16:04.836Z,11.68
2018-09-21T07:18:33.720Z,11.73
2018-09-21T07:21:02.549Z,11.80
2018-09-21T07:23:31.490Z,11.89
2018-09-21T07:26:00.413Z,11.97
2018-09-21T07:28:29.220Z,12.06
2018-09-21T07:30:58.075Z,12.11
2018-09-21T07:33:26.732Z,12.14
2018-09-21T07:35:55.421Z,12.18
2018-09-21T07:38:24.100Z,12.21
2018-09-21T07:40:52.771Z,12.23
2018-09-21T07:43:21.476Z,12.25
2018-09-21T07:45:50.165Z,12.30
2018-09-21T07:48:18.848Z,12.35
2018-09-21T07:50:47.592Z,12.42
2018-09-21T07:53:16.268Z,12.46
2018-09-21T07:55:44.957Z,12.46
2018-09-21T07:58:13.613Z,12.46
2018-09-21T08:00:42.322Z,12.43
2018-09-21T08:03:10.984Z,12.43
2018-09-21T08:05:39.701Z,12.45
2018-09-21T08:08:08.406Z,12.48
2018-09-21T08:10:37.092Z,12.53
2018-09-21T08:13:05.777Z,12.55
2018-09-21T08:15:34.480Z,12.58
2018-09-21T08:18:03.160Z,12.59
2018-09-21T08:20:31.872Z,12.64
2018-09-21T08:23:00.637Z,12.71
2018-09-21T08:25:29.377Z,12.73
2018-09-21T08:27:58.144Z,12.75
2018-09-21T08:30:26.941Z,12.82
2018-09-21T08:32:57.271Z,12.90
2018-09-21T08:35:25.958Z,13.04
2018-09-21T08:37:54.641Z,13.09
2018-09-21T08:40:23.361Z,13.08
2018-09-21T08:42:52.142Z,13.13
2018-09-21T08:45:20.812Z,13.17
2018-09-21T08:47:49.496Z,13.27
2018-09-21T08:50:18.184Z,13.41
2018-09-21T08:52:46.888Z,13.46
2018-09-21T08:55:15.645Z,13.48
2018-09-21T08:57:44.343Z,13.54
2018-09-21T09:00:13.089Z,13.60
2018-09-21T09:02:41.807Z,13.67
2018-09-21T09:05:10.534Z,13.60
2018-09-21T09:07:39.214Z,13.67
2018-09-21T09:10:08.056Z,13.79
2018-09-21T09:12:36.729Z,13.96
2018-09-21T09:15:05.548Z,14.03
2018-09-21T09:17:34.261Z,13.99
2018-09-21T09:20:02.973Z,13.91
2018-09-21T09:22:31.685Z,13.84
2018-09-21T09:25:00.416Z,13.84
2018-09-21T09:27:29.093Z,13.88
2018-09-21T09:29:57.894Z,14.02
2018-09-21T09:32:26.534Z,14.12
2018-09-21T09:34:55.270Z,14.20
2018-09-21T09:37:23.970Z,14.15
2018-09-21T09:39:52.700Z,14.19
2018-09-21T09:42:21.428Z,14.20
2018-09-21T09:44:50.128Z,14.08
2018-09-21T09:47:18.844Z,14.09
2018-09-21T09:49:47.549Z,14.15
2018-09-21T09:52:16.261Z,14.20
2018-09-21T09:54:44.976Z,14.36
2018-09-21T09:57:13.679Z,14.47
2018-09-21T09:59:42.381Z,14.48
2018-09-21T10:02:11.054Z,14.54
2018-09-21T10:04:39.753Z,14.59
2018-09-21T10:07:08.476Z,14.66
2018-09-21T10:09:37.175Z,14.74
2018-09-21T10:12:05.864Z,14.76
2018-09-21T10:14:34.637Z,14.67
2018-09-21T10:17:03.308Z,14.70
2018-09-21T10:19:32.014Z,14.83
2018-09-21T10:22:00.712Z,14.92
2018-09-21T10:24:29.389Z,14.90
2018-09-21T10:26:58.158Z,14.84
2018-09-21T10:29:26.774Z,14.92
2018-09-21T10:31:55.485Z,14.93
2018-09-21T10:34:24.193Z,14.89
2018-09-21T10:36:52.880Z,14.84
2018-09-21T10:39:21.727Z,14.98
2018-09-21T10:41:50.352Z,15.11
2018-09-21T10:44:19.035Z,15.21
2018-09-21T10:46:47.890Z,15.07
2018-09-21T10:49:16.655Z,14.97
2018-09-21T10:51:45.458Z,15.02
2018-09-21T10:54:14.160Z,15.16
2018-09-21T10:56:42.852Z,15.19
2018-09-21T10:59:11.534Z,15.15
2018-09-21T11:01:40.248Z,15.17
2018-09-21T11:04:08.955Z,15.31
2018-09-21T11:06:37.625Z,15.41
2018-09-21T11:09:09.867Z,15.52
2018-09-21T11:11:38.858Z,15.49
2018-09-21T11:14:07.567Z,15.47
2018-09-21T11:16:36.276Z,15.34
2018-09-21T11:19:05.040Z,15.28
2018-09-21T11:21:33.811Z,15.22
2018-09-21T11:24:02.544Z,15.10
2018-09-21T11:26:31.244Z,15.06
2018-09-21T11:28:59.943Z,15.13
2018-09-21T11:31:28.663Z,15.24
2018-09-21T11:33:57.368Z,15.22
2018-09-21T11:36:26.068Z,15.38
2018-09-21T11:38:54.781Z,15.66
2018-09-21T11:41:23.476Z,15.70
2018-09-21T11:43:52.148Z,15.80
2018-09-21T11:46:21.076Z,15.62
2018-09-21T11:48:49.767Z,15.16
2018-09-21T11:51:18.502Z,14.65
2018-09-21T11:53:47.212Z,14.32
2018-09-21T11:56:15.961Z,14.21
2018-09-21T11:58:44.652Z,14.54
2018-09-21T12:01:13.333Z,14.92
2018-09-21T12:03:42.034Z,15.22
2018-09-21T12:06:10.711Z,15.47
2018-09-21T12:08:39.391Z,15.74
2018-09-21T12:11:08.133Z,15.97
2018-09-21T12:13:36.908Z,16.14
2018-09-21T12:16:05.690Z,16.35
2018-09-21T12:18:34.423Z,16.31
2018-09-21T12:21:03.128Z,16.34
2018-09-21T12:23:31.810Z,16.21
2018-09-21T12:26:00.537Z,15.85
2018-09-21T12:28:29.238Z,15.44
2018-09-21T12:30:57.962Z,15.00
2018-09-21T12:33:26.669Z,14.78
2018-09-21T12:35:55.447Z,14.62
2018-09-21T12:38:24.152Z,14.51
2018-09-21T12:40:52.840Z,14.40
2018-09-21T12:43:21.525Z,14.29
2018-09-21T12:45:50.675Z,14.04
2018-09-21T12:48:19.368Z,14.01
2018-09-21T12:50:48.127Z,14.10
2018-09-21T12:53:16.860Z,14.34
2018-09-21T12:55:45.580Z,14.63
2018-09-21T12:58:14.274Z,14.81
2018-09-21T13:00:48.143Z,14.99
2018-09-21T13:03:16.807Z,15.38
2018-09-21T13:05:45.513Z,15.47
2018-09-21T13:08:14.243Z,15.15
2018-09-21T13:10:42.937Z,14.81
2018-09-21T13:13:11.669Z,14.66
2018-09-21T13:15:40.367Z,14.58
2018-09-21T13:18:09.089Z,14.72
2018-09-21T13:20:37.776Z,15.05
2018-09-21T13:23:06.590Z,15.05
2018-09-21T13:25:35.414Z,14.84
2018-09-21T13:28:04.154Z,14.70
2018-09-21T13:30:32.929Z,14.62
2018-09-21T13:33:01.725Z,14.59
2018-09-21T13:35:31.085Z,14.63
2018-09-21T13:38:00.575Z,14.70
2018-09-21T13:40:29.319Z,15.02
2018-09-21T13:42:58.031Z,15.55
2018-09-21T13:45:26.720Z,15.83
2018-09-21T13:47:55.425Z,15.55
2018-09-21T13:50:24.312Z,15.03
2018-09-21T13:52:53.089Z,14.51
2018-09-21T13:55:21.868Z,14.28
2018-09-21T13:57:50.559Z,14.15
2018-09-21T14:00:19.238Z,14.28
2018-09-21T14:02:47.899Z,14.39
2018-09-21T14:05:16.597Z,14.31
2018-09-21T14:07:45.268Z,14.59
2018-09-21T14:10:13.935Z,14.59
2018-09-21T14:12:42.657Z,14.45
2018-09-21T14:15:11.340Z,14.58
2018-09-21T14:17:40.006Z,14.74
2018-09-21T14:20:08.733Z,14.95
2018-09-21T14:22:37.399Z,15.13
2018-09-21T14:25:06.112Z,15.29
2018-09-21T14:27:34.773Z,15.23
2018-09-21T14:30:03.528Z,15.37
2018-09-21T14:32:32.198Z,15.60
2018-09-21T14:35:01.047Z,15.78
2018-09-21T14:37:29.782Z,15.76
2018-09-21T14:39:58.499Z,15.62
2018-09-21T14:42:27.239Z,15.81
2018-09-21T14:44:55.938Z,15.99
2018-09-21T14:47:24.663Z,16.38
2018-09-21T14:49:53.490Z,16.70
2018-09-21T14:52:22.207Z,16.85
2018-09-21T14:54:50.904Z,17.00
2018-09-21T14:57:19.701Z,17.12
2018-09-21T14:59:48.443Z,17.03
2018-09-21T15:02:17.355Z,17.17
2018-09-21T15:04:46.175Z,17.21
2018-09-21T15:07:15.065Z,17.38
2018-09-21T15:09:43.814Z,17.57
2018-09-21T15:12:12.583Z,17.63
2018-09-21T15:14:41.346Z,17.49
2018-09-21T15:17:10.153Z,17.11
2018-09-21T15:19:38.842Z,17.00
2018-09-21T15:22:08.220Z,16.99
2018-09-21T15:24:37.053Z,17.23
2018-09-21T15:27:05.880Z,17.39
2018-09-21T15:29:34.717Z,17.33
2018-09-21T15:32:03.428Z,17.15
2018-09-21T15:34:32.132Z,16.96
2018-09-21T15:37:00.836Z,17.28
2018-09-21T15:39:29.731Z,17.28
2018-09-21T15:41:58.397Z,16.95
2018-09-21T15:44:27.065Z,16.70
2018-09-21T15:46:55.768Z,16.51
2018-09-21T15:49:25.636Z,16.32
2018-09-21T15:51:54.406Z,16.49
2018-09-21T15:54:23.099Z,16.74
2018-09-21T15:56:51.807Z,16.95
2018-09-21T15:59:20.515Z,16.73
2018-09-21T16:01:49.219Z,16.60
2018-09-21T16:04:18.018Z,16.51
2018-09-21T16:06:46.738Z,16.29
2018-09-21T16:09:15.541Z,16.11
2018-09-21T16:11:44.324Z,16.18
2018-09-21T16:14:13.021Z,16.52
2018-09-21T16:16:42.884Z,16.92
2018-09-21T16:19:11.606Z,16.93
2018-09-21T16:21:40.276Z,16.66
2018-09-21T16:24:09.028Z,16.85
2018-09-21T16:26:37.729Z,17.22
2018-09-21T16:29:06.439Z,17.41
2018-09-21T16:31:35.155Z,17.61
2018-09-21T16:34:03.841Z,17.77
2018-09-21T16:36:32.565Z,17.74
2018-09-21T16:39:01.364Z,17.45
2018-09-21T16:41:30.136Z,17.39
2018-09-21T16:43:59.068Z,17.45
2018-09-21T16:46:27.777Z,17.32
2018-09-21T16:48:56.526Z,17.23
2018-09-21T16:51:25.446Z,17.27
2018-09-21T16:53:54.200Z,17.19
2018-09-21T16:56:23.040Z,17.21
2018-09-21T16:58:51.892Z,17.02
2018-09-21T17:01:20.670Z,16.91
2018-09-21T17:03:49.392Z,16.69
2018-09-21T17:06:18.167Z,16.64
2018-09-21T17:08:46.877Z,16.69
2018-09-21T17:11:15.674Z,16.57
2018-09-21T17:13:44.318Z,16.40
2018-09-21T17:16:13.177Z,16.24
2018-09-21T17:18:42.000Z,16.06
2018-09-21T17:21:10.880Z,15.94
2018-09-21T17:23:39.665Z,15.89
2018-09-21T17:26:08.524Z,15.78
2018-09-21T17:28:37.393Z,15.68
2018-09-21T17:31:06.300Z,15.59
2018-09-21T17:33:35.068Z,15.51
2018-09-21T17:36:03.864Z,15.38
2018-09-21T17:38:32.706Z,15.23
2018-09-21T17:41:01.585Z,15.11
2018-09-21T17:43:30.353Z,15.01
2018-09-21T17:45:59.130Z,14.94
2018-09-21T17:48:27.857Z,14.85
2018-09-21T17:50:56.659Z,14.79
2018-09-21T17:53:25.497Z,14.72
2018-09-21T17:55:54.211Z,14.65
2018-09-21T17:58:22.982Z,14.62
2018-09-21T18:00:51.991Z,14.58
2018-09-21T18:03:20.751Z,14.51
2018-09-21T18:05:49.673Z,14.42
2018-09-21T18:08:18.429Z,14.41
2018-09-21T18:10:47.218Z,14.36
2018-09-21T18:13:16.177Z,14.32
2018-09-21T18:15:45.005Z,14.29
2018-09-21T18:18:13.689Z,14.26
2018-09-21T18:20:42.360Z,14.23
2018-09-21T18:23:11.067Z,14.18
2018-09-21T18:25:39.841Z,14.13
2018-09-21T18:28:08.484Z,14.09
2018-09-21T18:30:37.187Z,14.10
2018-09-21T18:33:05.912Z,14.08
2018-09-21T18:35:34.599Z,14.07
2018-09-21T18:38:03.489Z,14.04
2018-09-21T18:40:33.134Z,14.01
2018-09-21T18:43:01.996Z,13.99
2018-09-21T18:45:30.705Z,13.99
2018-09-21T18:47:59.388Z,13.96
2018-09-21T18:50:29.189Z,13.94
2018-09-21T18:52:57.788Z,13.91
2018-09-21T18:55:26.467Z,13.88
2018-09-21T18:57:55.169Z,13.89
2018-09-21T19:00:23.872Z,13.92
2018-09-21T19:02:52.751Z,13.92
2018-09-21T19:05:21.541Z,13.90
2018-09-21T19:07:50.403Z,13.92
2018-09-21T19:10:19.085Z,13.93
2018-09-21T19:12:47.888Z,13.92
2018-09-21T19:15:16.672Z,13.86
2018-09-21T19:17:45.386Z,13.93
2018-09-21T19:20:14.240Z,13.93
2018-09-21T19:22:42.955Z,13.93
2018-09-21T19:25:11.742Z,13.96
2018-09-21T19:27:40.469Z,13.96
2018-09-21T19:30:09.341Z,13.95
2018-09-21T19:32:38.027Z,13.97
2018-09-21T19:35:06.871Z,13.98
2018-09-21T19:37:35.901Z,13.95
2018-09-21T19:40:04.885Z,13.95
2018-09-21T19:42:34.797Z,13.96
2018-09-21T19:45:03.848Z,13.97
2018-09-21T19:47:32.489Z,13.98
2018-09-21T19:50:01.265Z,13.95
2018-09-21T19:52:29.931Z,13.97
2018-09-21T19:54:58.780Z,13.97
2018-09-21T19:57:27.496Z,13.97
2018-09-21T19:59:56.336Z,13.97
2018-09-21T20:02:25.150Z,13.95
2018-09-21T20:04:53.961Z,13.95
2018-09-21T20:07:22.667Z,13.95
2018-09-21T20:09:51.353Z,13.94
2018-09-21T20:12:20.097Z,13.93
2018-09-21T20:14:48.893Z,13.94
2018-09-21T20:17:17.905Z,13.92
2018-09-21T20:19:46.672Z,13.95
2018-09-21T20:22:15.459Z,13.96
2018-09-21T20:24:44.317Z,13.97
2018-09-21T20:27:13.243Z,13.94
2018-09-21T20:29:42.011Z,13.96
2018-09-21T20:32:15.904Z,13.95
2018-09-21T20:34:44.658Z,13.97
2018-09-21T20:37:13.468Z,13.96
2018-09-21T20:39:42.337Z,13.96
2018-09-21T20:42:11.084Z,13.96
2018-09-21T20:44:39.811Z,13.95
2018-09-21T20:47:08.707Z,13.93
2018-09-21T20:49:37.622Z,13.93
2018-09-21T20:52:06.392Z,13.93
2018-09-21T20:54:35.346Z,13.93
2018-09-21T20:57:04.128Z,13.94
2018-09-21T20:59:32.881Z,13.94
2018-09-21T21:02:01.615Z,13.94
2018-09-21T21:04:30.331Z,13.93
2018-09-21T21:06:59.048Z,13.93
2018-09-21T21:09:27.731Z,13.93
2018-09-21T21:11:57.090Z,13.93
2018-09-21T21:14:25.813Z,13.94
2018-09-21T21:16:54.500Z,13.95
2018-09-21T21:19:23.235Z,13.95
2018-09-21T21:21:52.004Z,13.96
2018-09-21T21:24:20.705Z,13.95
2018-09-21T21:26:49.468Z,13.95
2018-09-21T21:29:18.183Z,13.96
2018-09-21T21:31:46.948Z,13.97
2018-09-21T21:34:15.639Z,14.00
2018-09-21T21:36:44.351Z,14.00
2018-09-21T21:39:13.089Z,13.99
2018-09-21T21:41:41.786Z,14.00
2018-09-21T21:44:10.490Z,14.00
2018-09-21T21:46:39.178Z,13.98
2018-09-21T21:49:07.878Z,13.95
2018-09-21T21:51:36.593Z,13.99
2018-09-21T21:54:05.305Z,13.97
2018-09-21T21:56:34.076Z,13.98
2018-09-21T21:59:02.741Z,13.95
2018-09-21T22:01:36.423Z,13.96
2018-09-21T22:04:05.140Z,13.95
2018-09-21T22:06:33.820Z,13.95
2018-09-21T22:09:02.499Z,13.95
2018-09-21T22:11:36.236Z,13.96
2018-09-21T22:14:09.200Z,13.96
2018-09-21T22:16:37.910Z,13.96
2018-09-21T22:19:07.183Z,13.94
2018-09-21T22:21:35.925Z,13.96
2018-09-21T22:24:04.678Z,13.97
2018-09-21T22:26:33.619Z,13.97
2018-09-21T22:29:02.324Z,13.95
2018-09-21T22:31:31.316Z,13.93
2018-09-21T22:34:00.060Z,13.90
2018-09-21T22:36:28.749Z,13.89
2018-09-21T22:38:57.443Z,13.88
2018-09-21T22:41:26.171Z,13.88
2018-09-21T22:43:54.878Z,13.90
2018-09-21T22:46:23.562Z,13.89
2018-09-21T22:48:53.047Z,13.89
2018-09-21T22:51:21.720Z,13.89
2018-09-21T22:53:50.412Z,13.89
2018-09-21T22:56:19.091Z,13.89
2018-09-21T22:58:47.782Z,13.86
2018-09-21T23:01:16.483Z,13.85
2018-09-21T23:03:45.153Z,13.84
2018-09-21T23:06:13.854Z,13.82
2018-09-21T23:08:42.540Z,13.82
2018-09-21T23:11:11.229Z,13.82
2018-09-21T23:13:39.896Z,13.81
2018-09-21T23:16:08.596Z,13.81
2018-09-21T23:18:37.334Z,13.80
2018-09-21T23:21:06.035Z,13.82
2018-09-21T23:23:34.785Z,13.81
2018-09-21T23:26:03.472Z,13.80
2018-09-21T23:28:32.162Z,13.79
2018-09-21T23:31:00.867Z,13.77
2018-09-21T23:33:29.570Z,13.77
2018-09-21T23:35:58.292Z,13.76
2018-09-21T23:38:26.973Z,13.76
2018-09-21T23:40:55.660Z,13.77
2018-09-21T23:43:24.352Z,13.77
2018-09-21T23:45:53.047Z,13.76
2018-09-21T23:48:21.733Z,13.77
2018-09-21T23:50:50.421Z,13.76
2018-09-21T23:53:19.075Z,13.77
2018-09-21T23:55:47.758Z,13.78
2018-09-21T23:58:16.423Z,13.77
